sensor_id;sensor_type;location;lat;lon;timestamp;temperature;humidity
34522;DHT22;25561;48.888;8.736;2023-06-01T05:31:08;25.50;99.90
34522;DHT22;25561;48.888;8.736;2023-06-01T05:34:10;25.90;99.90
34522;DHT22;25561;48.888;8.736;2023-06-01T05:37:12;26.50;99.90
34522;DHT22;25561;48.888;8.736;2023-06-01T05:40:14;25.60;99.90
34522;DHT22;25561;48.888;8.736;2023-06-01T05:43:16;25.20;99.90
34522;DHT22;25561;48.888;8.736;2023-06-01T05:46:18;24.40;99.90
34522;DHT22;25561;48.888;8.736;2023-06-01T05:49:20;24.10;99.90
34522;DHT22;25561;48.888;8.736;2023-06-01T05:52:23;24.40;99.90
34522;DHT22;25561;48.888;8.736;2023-06-01T05:55:24;25.10;99.90
34522;DHT22;25561;48.888;8.736;2023-06-01T05:58:26;26.30;99.90
34522;DHT22;25561;48.888;8.736;2023-06-01T06:01:28;25.90;99.90
34522;DHT22;25561;48.888;8.736;2023-06-01T06:04:31;26.20;99.90
34522;DHT22;25561;48.888;8.736;2023-06-01T06:07:32;27.60;98.80
34522;DHT22;25561;48.888;8.736;2023-06-01T06:10:34;26.70;98.60
34522;DHT22;25561;48.888;8.736;2023-06-01T06:49:35;27.40;93.50
34522;DHT22;25561;48.888;8.736;2023-06-01T06:52:37;27.40;93.20
34522;DHT22;25561;48.888;8.736;2023-06-01T06:55:39;27.60;92.50
34522;DHT22;25561;48.888;8.736;2023-06-01T06:58:41;27.70;92.20
34522;DHT22;25561;48.888;8.736;2023-06-01T07:01:50;29.40;88.90
34522;DHT22;25561;48.888;8.736;2023-06-01T07:04:52;28.30;90.90
34522;DHT22;25561;48.888;8.736;2023-06-01T07:07:54;29.20;89.80
34522;DHT22;25561;48.888;8.736;2023-06-01T07:10:58;28.40;89.60
34522;DHT22;25561;48.888;8.736;2023-06-01T07:14:00;30.00;84.30
34522;DHT22;25561;48.888;8.736;2023-06-01T07:17:02;29.80;83.60
34522;DHT22;25561;48.888;8.736;2023-06-01T07:20:06;30.50;79.10
34522;DHT22;25561;48.888;8.736;2023-06-01T07:23:09;30.50;77.60
34522;DHT22;25561;48.888;8.736;2023-06-01T07:26:13;30.70;74.90
34522;DHT22;25561;48.888;8.736;2023-06-01T07:29:15;31.50;71.50
34522;DHT22;25561;48.888;8.736;2023-06-01T07:32:17;31.90;69.70
34522;DHT22;25561;48.888;8.736;2023-06-01T07:35:19;31.50;71.40
34522;DHT22;25561;48.888;8.736;2023-06-01T07:38:21;31.50;66.90
34522;DHT22;25561;48.888;8.736;2023-06-01T07:41:22;32.00;66.20
34522;DHT22;25561;48.888;8.736;2023-06-01T07:44:24;32.60;66.20
34522;DHT22;25561;48.888;8.736;2023-06-01T07:47:27;33.00;61.00
34522;DHT22;25561;48.888;8.736;2023-06-01T07:50:30;32.80;60.90
34522;DHT22;25561;48.888;8.736;2023-06-01T07:53:32;32.50;62.30
34522;DHT22;25561;48.888;8.736;2023-06-01T07:56:34;32.30;60.50
34522;DHT22;25561;48.888;8.736;2023-06-01T07:59:37;32.90;59.50
34522;DHT22;25561;48.888;8.736;2023-06-01T08:02:39;33.40;59.10
34522;DHT22;25561;48.888;8.736;2023-06-01T08:05:41;33.30;60.50
34522;DHT22;25561;48.888;8.736;2023-06-01T08:08:44;33.50;58.40
34522;DHT22;25561;48.888;8.736;2023-06-01T08:11:48;33.00;61.30
34522;DHT22;25561;48.888;8.736;2023-06-01T08:14:50;33.70;58.20
34522;DHT22;25561;48.888;8.736;2023-06-01T08:17:52;33.80;59.20
34522;DHT22;25561;48.888;8.736;2023-06-01T08:20:54;33.10;59.40
34522;DHT22;25561;48.888;8.736;2023-06-01T08:23:57;34.10;58.20
34522;DHT22;25561;48.888;8.736;2023-06-01T08:26:59;34.10;57.70
34522;DHT22;25561;48.888;8.736;2023-06-01T08:30:01;31.90;59.50
34522;DHT22;25561;48.888;8.736;2023-06-01T08:33:02;32.70;58.90
34522;DHT22;25561;48.888;8.736;2023-06-01T08:36:04;34.10;58.30
34522;DHT22;25561;48.888;8.736;2023-06-01T08:39:20;33.60;62.10
34522;DHT22;25561;48.888;8.736;2023-06-01T08:42:39;33.50;62.30
34522;DHT22;25561;48.888;8.736;2023-06-01T08:45:43;35.20;60.20
34522;DHT22;25561;48.888;8.736;2023-06-01T08:48:45;36.70;58.20
34522;DHT22;25561;48.888;8.736;2023-06-01T08:51:49;33.40;58.70
34522;DHT22;25561;48.888;8.736;2023-06-01T08:54:54;33.20;59.90
34522;DHT22;25561;48.888;8.736;2023-06-01T08:57:56;33.00;60.00
34522;DHT22;25561;48.888;8.736;2023-06-01T09:00:58;32.10;61.10
34522;DHT22;25561;48.888;8.736;2023-06-01T09:04:00;32.70;61.30
34522;DHT22;25561;48.888;8.736;2023-06-01T09:07:02;33.20;61.40
34522;DHT22;25561;48.888;8.736;2023-06-01T09:10:05;33.10;59.40
34522;DHT22;25561;48.888;8.736;2023-06-01T09:13:07;33.20;59.30
34522;DHT22;25561;48.888;8.736;2023-06-01T09:16:09;33.50;62.30
34522;DHT22;25561;48.888;8.736;2023-06-01T09:19:11;33.60;59.60
34522;DHT22;25561;48.888;8.736;2023-06-01T09:22:13;33.40;59.20
34522;DHT22;25561;48.888;8.736;2023-06-01T09:25:15;33.10;61.00
34522;DHT22;25561;48.888;8.736;2023-06-01T09:28:17;32.20;62.30
34522;DHT22;25561;48.888;8.736;2023-06-01T09:31:38;33.60;59.80
34522;DHT22;25561;48.888;8.736;2023-06-01T09:34:44;33.90;58.80
34522;DHT22;25561;48.888;8.736;2023-06-01T09:37:55;34.90;58.40
34522;DHT22;25561;48.888;8.736;2023-06-01T09:41:02;34.60;56.60
34522;DHT22;25561;48.888;8.736;2023-06-01T09:44:04;35.20;56.90
34522;DHT22;25561;48.888;8.736;2023-06-01T09:47:11;36.40;54.60
34522;DHT22;25561;48.888;8.736;2023-06-01T09:53:42;33.50;56.90
34522;DHT22;25561;48.888;8.736;2023-06-01T09:56:44;33.50;60.30
34522;DHT22;25561;48.888;8.736;2023-06-01T09:59:47;34.30;58.60
34522;DHT22;25561;48.888;8.736;2023-06-01T10:02:49;34.10;58.40
34522;DHT22;25561;48.888;8.736;2023-06-01T10:05:51;34.20;59.30
34522;DHT22;25561;48.888;8.736;2023-06-01T10:08:53;35.20;55.70
34522;DHT22;25561;48.888;8.736;2023-06-01T10:11:55;35.10;55.40
34522;DHT22;25561;48.888;8.736;2023-06-01T10:14:57;34.70;56.80
34522;DHT22;25561;48.888;8.736;2023-06-01T10:18:08;34.60;56.40
34522;DHT22;25561;48.888;8.736;2023-06-01T10:21:10;33.60;55.50
34522;DHT22;25561;48.888;8.736;2023-06-01T10:24:17;33.20;56.90
34522;DHT22;25561;48.888;8.736;2023-06-01T10:27:24;33.30;57.20
34522;DHT22;25561;48.888;8.736;2023-06-01T10:30:27;32.30;59.40
34522;DHT22;25561;48.888;8.736;2023-06-01T10:33:51;32.70;60.90
34522;DHT22;25561;48.888;8.736;2023-06-01T10:37:09;33.00;58.20
34522;DHT22;25561;48.888;8.736;2023-06-01T10:40:21;32.50;59.30
34522;DHT22;25561;48.888;8.736;2023-06-01T10:46:39;30.60;63.00
34522;DHT22;25561;48.888;8.736;2023-06-01T10:53:24;31.80;60.10
34522;DHT22;25561;48.888;8.736;2023-06-01T10:56:27;31.50;59.70
34522;DHT22;25561;48.888;8.736;2023-06-01T10:59:28;31.60;59.00
34522;DHT22;25561;48.888;8.736;2023-06-01T11:02:30;32.30;57.10
34522;DHT22;25561;48.888;8.736;2023-06-01T11:05:48;32.30;57.00
34522;DHT22;25561;48.888;8.736;2023-06-01T11:08:51;32.10;58.20
34522;DHT22;25561;48.888;8.736;2023-06-01T11:15:09;30.80;65.20
34522;DHT22;25561;48.888;8.736;2023-06-01T11:18:49;30.60;61.20
34522;DHT22;25561;48.888;8.736;2023-06-01T11:22:00;30.60;61.00
34522;DHT22;25561;48.888;8.736;2023-06-01T11:25:05;30.90;64.40
34522;DHT22;25561;48.888;8.736;2023-06-01T11:28:09;32.00;64.40
34522;DHT22;25561;48.888;8.736;2023-06-01T11:31:15;31.80;62.20
34522;DHT22;25561;48.888;8.736;2023-06-01T11:34:32;32.60;61.80
34522;DHT22;25561;48.888;8.736;2023-06-01T11:37:40;32.20;59.00
34522;DHT22;25561;48.888;8.736;2023-06-01T11:40:58;30.60;61.80
34522;DHT22;25561;48.888;8.736;2023-06-01T11:44:01;29.50;66.70
34522;DHT22;25561;48.888;8.736;2023-06-01T11:47:04;28.80;67.10
34522;DHT22;25561;48.888;8.736;2023-06-01T11:50:20;28.40;66.00
34522;DHT22;25561;48.888;8.736;2023-06-01T11:53:23;28.00;65.40
34522;DHT22;25561;48.888;8.736;2023-06-01T11:56:32;28.00;69.00
34522;DHT22;25561;48.888;8.736;2023-06-01T11:59:39;28.20;72.30
34522;DHT22;25561;48.888;8.736;2023-06-01T12:02:41;28.10;69.40
34522;DHT22;25561;48.888;8.736;2023-06-01T12:05:45;27.80;69.60
34522;DHT22;25561;48.888;8.736;2023-06-01T12:08:49;27.30;71.00
34522;DHT22;25561;48.888;8.736;2023-06-01T12:11:52;27.30;69.40
34522;DHT22;25561;48.888;8.736;2023-06-01T12:14:54;27.50;69.50
34522;DHT22;25561;48.888;8.736;2023-06-01T12:17:56;27.60;70.00
34522;DHT22;25561;48.888;8.736;2023-06-01T12:21:08;27.30;67.80
34522;DHT22;25561;48.888;8.736;2023-06-01T12:24:10;27.50;67.10
34522;DHT22;25561;48.888;8.736;2023-06-01T12:27:14;27.60;66.20
34522;DHT22;25561;48.888;8.736;2023-06-01T12:30:20;27.80;66.30
34522;DHT22;25561;48.888;8.736;2023-06-01T12:33:36;27.60;65.10
34522;DHT22;25561;48.888;8.736;2023-06-01T12:36:37;26.90;65.70
34522;DHT22;25561;48.888;8.736;2023-06-01T12:39:40;27.20;67.70
34522;DHT22;25561;48.888;8.736;2023-06-01T12:42:43;27.10;68.40
34522;DHT22;25561;48.888;8.736;2023-06-01T12:45:44;27.40;65.70
34522;DHT22;25561;48.888;8.736;2023-06-01T12:48:47;27.50;68.00
34522;DHT22;25561;48.888;8.736;2023-06-01T12:51:49;27.50;66.10
34522;DHT22;25561;48.888;8.736;2023-06-01T12:54:51;27.40;66.40
34522;DHT22;25561;48.888;8.736;2023-06-01T12:57:54;27.20;66.20
34522;DHT22;25561;48.888;8.736;2023-06-01T13:00:56;26.90;64.50
34522;DHT22;25561;48.888;8.736;2023-06-01T13:03:58;26.70;66.00
34522;DHT22;25561;48.888;8.736;2023-06-01T13:07:00;26.70;67.10
34522;DHT22;25561;48.888;8.736;2023-06-01T13:10:03;26.70;65.70
34522;DHT22;25561;48.888;8.736;2023-06-01T13:13:07;26.80;65.70
34522;DHT22;25561;48.888;8.736;2023-06-01T13:16:09;26.80;65.00
34522;DHT22;25561;48.888;8.736;2023-06-01T13:19:11;26.90;66.60
34522;DHT22;25561;48.888;8.736;2023-06-01T13:22:13;26.70;64.40
34522;DHT22;25561;48.888;8.736;2023-06-01T13:25:15;26.60;66.00
34522;DHT22;25561;48.888;8.736;2023-06-01T13:28:19;26.70;65.70
34522;DHT22;25561;48.888;8.736;2023-06-01T13:31:21;26.80;63.10
34522;DHT22;25561;48.888;8.736;2023-06-01T13:34:24;26.70;64.80
34522;DHT22;25561;48.888;8.736;2023-06-01T13:37:27;26.50;65.70
34522;DHT22;25561;48.888;8.736;2023-06-01T13:40:29;26.60;64.10
34522;DHT22;25561;48.888;8.736;2023-06-01T13:43:30;26.60;62.50
34522;DHT22;25561;48.888;8.736;2023-06-01T13:46:32;26.40;62.90
34522;DHT22;25561;48.888;8.736;2023-06-01T13:49:34;26.50;61.60
34522;DHT22;25561;48.888;8.736;2023-06-01T13:52:36;26.70;62.00
34522;DHT22;25561;48.888;8.736;2023-06-01T13:55:38;26.40;64.30
34522;DHT22;25561;48.888;8.736;2023-06-01T13:58:41;26.40;65.00
34522;DHT22;25561;48.888;8.736;2023-06-01T14:01:43;26.70;65.80
34522;DHT22;25561;48.888;8.736;2023-06-01T14:04:45;26.60;61.70
34522;DHT22;25561;48.888;8.736;2023-06-01T14:08:00;26.40;65.10
34522;DHT22;25561;48.888;8.736;2023-06-01T14:11:03;26.60;65.20
34522;DHT22;25561;48.888;8.736;2023-06-01T14:14:05;26.50;65.30
34522;DHT22;25561;48.888;8.736;2023-06-01T14:17:07;26.60;66.90
34522;DHT22;25561;48.888;8.736;2023-06-01T14:20:09;26.50;66.40
34522;DHT22;25561;48.888;8.736;2023-06-01T14:23:12;26.70;65.70
34522;DHT22;25561;48.888;8.736;2023-06-01T14:26:14;26.70;66.50
34522;DHT22;25561;48.888;8.736;2023-06-01T14:29:15;26.60;64.70
34522;DHT22;25561;48.888;8.736;2023-06-01T14:32:17;26.30;65.60
34522;DHT22;25561;48.888;8.736;2023-06-01T14:35:19;26.20;64.80
34522;DHT22;25561;48.888;8.736;2023-06-01T14:38:22;26.20;64.00
34522;DHT22;25561;48.888;8.736;2023-06-01T14:41:23;25.90;64.50
34522;DHT22;25561;48.888;8.736;2023-06-01T14:44:26;26.20;64.30
34522;DHT22;25561;48.888;8.736;2023-06-01T14:47:28;26.20;63.50
34522;DHT22;25561;48.888;8.736;2023-06-01T14:50:30;26.00;62.60
34522;DHT22;25561;48.888;8.736;2023-06-01T14:53:32;25.80;61.40
34522;DHT22;25561;48.888;8.736;2023-06-01T14:56:33;26.00;63.80
34522;DHT22;25561;48.888;8.736;2023-06-01T14:59:35;26.20;60.00
34522;DHT22;25561;48.888;8.736;2023-06-01T15:02:40;26.10;58.50
34522;DHT22;25561;48.888;8.736;2023-06-01T15:05:42;26.00;61.00
34522;DHT22;25561;48.888;8.736;2023-06-01T15:08:44;26.00;60.80
34522;DHT22;25561;48.888;8.736;2023-06-01T15:11:45;26.10;64.70
34522;DHT22;25561;48.888;8.736;2023-06-01T15:14:48;26.00;61.90
34522;DHT22;25561;48.888;8.736;2023-06-01T15:17:51;26.00;62.30
34522;DHT22;25561;48.888;8.736;2023-06-01T15:20:53;25.90;62.30
34522;DHT22;25561;48.888;8.736;2023-06-01T15:23:54;25.90;63.80
34522;DHT22;25561;48.888;8.736;2023-06-01T15:26:56;25.90;64.60
34522;DHT22;25561;48.888;8.736;2023-06-01T15:29:58;25.80;65.10
34522;DHT22;25561;48.888;8.736;2023-06-01T15:33:00;25.70;63.90
34522;DHT22;25561;48.888;8.736;2023-06-01T15:36:09;25.60;64.50
34522;DHT22;25561;48.888;8.736;2023-06-01T15:39:11;25.50;64.50
34522;DHT22;25561;48.888;8.736;2023-06-01T15:42:13;25.70;65.80
34522;DHT22;25561;48.888;8.736;2023-06-01T15:45:15;25.80;65.10
34522;DHT22;25561;48.888;8.736;2023-06-01T15:48:17;25.90;66.20
34522;DHT22;25561;48.888;8.736;2023-06-01T15:51:19;26.10;65.70
34522;DHT22;25561;48.888;8.736;2023-06-01T15:54:21;25.80;68.00
34522;DHT22;25561;48.888;8.736;2023-06-01T15:57:23;25.80;69.00
